Aérodrome :
LOGIN :

S'inscrire | Disclaimer

   EN    FR    IT 

 










Légende :    VFR   VFR Marginal   IFR   IFR Intensif   IFR Très Intensif
Visi : 
Plafond : 
>= 8 km
>= 3000ft
5 à 8 km
1000 à 3000 ft
1500m à 5 km
500 à 1000 ft
800 à 1500m
200 à 500 ft
< 800m
< 200 ft
Symboles :   Orages  Brouillard  Fortes neiges  Fortes précipitations  Vent > 20 kt
SIGMETs :   Divers  Orages  Givrage  Turbulence  Onde Orograph.  Cendres Volcan.







- Altitude de l'aérodrome : 978 ft
- Code IATA : LNZ


LOWL - Linz

DERNIER METAR :
  • 152250Z AUTO VRB01KT 6000 NSC M01/M02 Q1032

METARs EXPIRÉS :
  • 152220Z AUTO 28002KT 7000 FEW240 M00/M01 Q1032
  • 152150Z AUTO VRB01KT 7000 FEW250 M00/M01 Q1032 TEMPO 4000 BR
  • 152120Z AUTO VRB01KT 9000 NSC M00/M02 Q1033 NOSIG
  • 152050Z AUTO VRB01KT 9999 NSC 00/M01 Q1033 NOSIG
  • 152020Z AUTO 28004KT 9999 NSC 01/M01 Q1033 NOSIG

TAF TAF LOWL
Valide du 15 à 18h jusqu'au 16 à 18h UTC


151715Z 1518/1618 VRB02KT CAVOK TX13/1614Z TNM01/1604Z
PROB40
TEMPO 1602/1609 0800 FZBCFG NSC
Pas de NOTAMs connus pour ce terrain.



MET'MAP, la Météo Aéronautique d'un coup d'oeil ! - Copyright ORBIFLY Décembre 2007 - Disclaimer

ORBIFLY MET'MAP TEAM :

Programmation & Développement : Alexandra Zaïnal
Conception & Développement : Baudouin d'Aumeries
Co-Programmation & Développement : Marc-Olivier Méhu
Soutien technique & logistique : Manuel Goepfert

Contact : metmap@orbifly.com




SOURCES & CREDITS :

   NOAA